createdAt,value
2022-08-14T00:00:18.370Z,84.564209
2022-08-14T00:01:28.049Z,84.057617
2022-08-14T00:02:37.745Z,83.959961
2022-08-14T00:03:47.429Z,83.959961
2022-08-14T00:04:57.120Z,84.466553
2022-08-14T00:06:14.204Z,84.606934
2022-08-14T00:07:17.647Z,84.70459
2022-08-14T00:08:43.660Z,84.503174
2022-08-14T00:09:40.142Z,84.197998
2022-08-14T00:10:50.753Z,83.48999
2022-08-14T00:11:58.456Z,83.795166
2022-08-14T00:13:07.299Z,84.197998
2022-08-14T00:14:17.843Z,84.197998
2022-08-14T00:15:26.510Z,84.70459
2022-08-14T00:16:40.750Z,83.898926
2022-08-14T00:17:53.175Z,83.392334
2022-08-14T00:19:07.027Z,83.392334
2022-08-14T00:20:09.433Z,83.325195
2022-08-14T00:21:19.189Z,83.630371
2022-08-14T00:22:44.814Z,84.240723
2022-08-14T00:23:40.530Z,85.253906
2022-08-14T00:24:50.166Z,84.643555
2022-08-14T00:26:06.363Z,85.357666
2022-08-14T00:27:09.559Z,85.089111
2022-08-14T00:28:19.227Z,84.58252
2022-08-14T00:29:29.883Z,85.089111
2022-08-14T00:30:42.765Z,85.089111
2022-08-14T00:31:49.237Z,85.131836
2022-08-14T00:32:59.943Z,85.638428
2022-08-14T00:34:35.750Z,85.839844
2022-08-14T00:35:21.438Z,86.047363
2022-08-14T00:36:34.779Z,86.346436
2022-08-14T00:37:42.748Z,86.590576
2022-08-14T00:38:52.429Z,86.2854
2022-08-14T00:40:01.155Z,86.694336
2022-08-14T00:41:11.784Z,86.999512
2022-08-14T00:42:53.117Z,88.012695
2022-08-14T00:43:32.433Z,87.811279
2022-08-14T00:44:42.668Z,88.214111
2022-08-14T00:45:51.566Z,89.129639
2022-08-14T00:46:59.343Z,89.63623
2022-08-14T00:48:09.015Z,89.73999
2022-08-14T00:49:21.094Z,89.331055
2022-08-14T00:50:28.395Z,89.129639
2022-08-14T00:51:38.152Z,88.623047
2022-08-14T00:52:50.759Z,88.519287
2022-08-14T00:53:56.475Z,88.116455
2022-08-14T00:55:04.126Z,87.70752
2022-08-14T00:56:14.227Z,87.609863
2022-08-14T00:57:23.423Z,87.811279
2022-08-14T00:58:32.432Z,88.012695
2022-08-14T00:59:41.744Z,88.458252
2022-08-14T01:00:57.615Z,88.562012
2022-08-14T01:02:01.114Z,88.458252
2022-08-14T01:03:11.829Z,88.256836
2022-08-14T01:04:37.411Z,88.562012
2022-08-14T01:05:32.377Z,88.562012
2022-08-14T01:06:42.737Z,88.665771
2022-08-14T01:07:54.201Z,89.068604
2022-08-14T01:09:01.095Z,89.416504
2022-08-14T01:10:10.794Z,89.312744
2022-08-14T01:11:20.421Z,89.312744
2022-08-14T01:12:30.416Z,90.026855
2022-08-14T01:13:42.465Z,90.838623
2022-08-14T01:14:51.464Z,90.942383
2022-08-14T01:16:02.883Z,90.740967
2022-08-14T01:17:11.802Z,90.838623
2022-08-14T01:18:22.511Z,91.101074
2022-08-14T01:19:32.158Z,90.594482
2022-08-14T01:20:41.988Z,90.490723
2022-08-14T01:21:52.689Z,89.984131
2022-08-14T01:22:59.293Z,90.594482
2022-08-14T01:24:10.862Z,90.594482
2022-08-14T01:25:20.673Z,90.185547
2022-08-14T01:26:34.927Z,89.984131
2022-08-14T01:27:41.077Z,89.678955
2022-08-14T01:28:56.384Z,89.331055
2022-08-14T01:30:03.478Z,89.129639
2022-08-14T01:31:14.473Z,88.519287
2022-08-14T01:32:23.583Z,88.623047
2022-08-14T01:33:39.643Z,88.519287
2022-08-14T01:35:16.965Z,87.609863
2022-08-14T01:36:04.281Z,87.200928
2022-08-14T01:37:05.422Z,87.609863
2022-08-14T01:38:16.519Z,87.811279
2022-08-14T01:39:25.918Z,87.609863
2022-08-14T01:40:37.129Z,87.097168
2022-08-14T01:41:46.696Z,86.798096
2022-08-14T01:42:55.848Z,86.590576
2022-08-14T01:44:04.701Z,86.346436
2022-08-14T01:45:17.821Z,86.248779
2022-08-14T01:46:24.958Z,86.248779
2022-08-14T01:47:37.389Z,86.450195
2022-08-14T01:48:44.288Z,86.346436
2022-08-14T01:49:59.256Z,86.047363
2022-08-14T01:51:03.705Z,85.839844
2022-08-14T01:52:23.267Z,85.839844
2022-08-14T01:53:25.020Z,85.742188
2022-08-14T01:54:37.706Z,85.742188
2022-08-14T01:55:45.359Z,85.638428
2022-08-14T01:56:55.670Z,85.534668
2022-08-14T01:58:19.189Z,85.534668
2022-08-14T01:59:18.489Z,85.534668
2022-08-14T02:00:23.956Z,85.839844
2022-08-14T02:01:34.692Z,85.839844
2022-08-14T02:02:46.540Z,85.638428
2022-08-14T02:03:56.931Z,86.047363
2022-08-14T02:05:04.613Z,86.14502
2022-08-14T02:06:31.992Z,85.534668
2022-08-14T02:07:27.383Z,86.047363
2022-08-14T02:08:35.522Z,86.248779
2022-08-14T02:09:44.449Z,85.839844
2022-08-14T02:10:54.922Z,86.14502
2022-08-14T02:12:03.580Z,85.638428
2022-08-14T02:13:12.301Z,85.681152
2022-08-14T02:14:31.294Z,85.681152
2022-08-14T02:15:30.594Z,85.681152
2022-08-14T02:16:39.459Z,85.681152
2022-08-14T02:17:50.010Z,85.882568
2022-08-14T02:18:58.663Z,85.980225
2022-08-14T02:20:08.574Z,86.2854
2022-08-14T02:21:17.203Z,85.980225
2022-08-14T02:22:29.271Z,85.778809
2022-08-14T02:23:37.546Z,85.980225
2022-08-14T02:24:47.828Z,86.2854
2022-08-14T02:25:56.040Z,86.187744
2022-08-14T02:28:19.437Z,86.38916
2022-08-14T02:28:19.745Z,86.2854
2022-08-14T02:29:27.066Z,86.2854
2022-08-14T02:30:38.174Z,86.083984
2022-08-14T02:31:45.464Z,86.083984
2022-08-14T02:32:55.150Z,86.187744
2022-08-14T02:34:03.780Z,86.49292
2022-08-14T02:35:13.424Z,87.200928
2022-08-14T02:37:03.137Z,88.012695
2022-08-14T02:37:37.475Z,88.726807
2022-08-14T02:38:43.397Z,89.233398
2022-08-14T02:39:51.102Z,89.63623
2022-08-14T02:40:59.751Z,88.458252
2022-08-14T02:42:12.924Z,87.445068
2022-08-14T02:43:19.117Z,87.445068
2022-08-14T02:44:29.391Z,87.341309
2022-08-14T02:45:44.587Z,87.243652
2022-08-14T02:46:49.638Z,87.243652
2022-08-14T02:47:59.783Z,87.243652
2022-08-14T02:49:09.444Z,87.445068
2022-08-14T02:50:19.127Z,87.445068
2022-08-14T02:51:30.330Z,87.548828
2022-08-14T02:52:56.998Z,87.341309
2022-08-14T02:53:48.098Z,87.646484
2022-08-14T02:54:57.780Z,88.15918
2022-08-14T02:56:29.938Z,88.256836
2022-08-14T02:57:39.626Z,88.299561
2022-08-14T02:58:29.392Z,88.806152
2022-08-14T02:59:36.441Z,88.195801
2022-08-14T03:00:47.149Z,87.890625
2022-08-14T03:01:55.923Z,87.994385
2022-08-14T03:03:07.561Z,88.195801
2022-08-14T03:04:17.515Z,88.299561
2022-08-14T03:05:25.821Z,88.195801
2022-08-14T03:06:57.210Z,87.792969
2022-08-14T03:07:47.119Z,87.384033
2022-08-14T03:08:56.791Z,87.384033
2022-08-14T03:10:24.924Z,87.585449
2022-08-14T03:11:17.242Z,87.792969
2022-08-14T03:12:31.134Z,87.890625
2022-08-14T03:13:37.515Z,88.098145
2022-08-14T03:14:47.177Z,88.299561
2022-08-14T03:15:57.776Z,88.500977
2022-08-14T03:17:05.548Z,88.342285
2022-08-14T03:18:15.195Z,88.134766
2022-08-14T03:19:25.919Z,88.238525
2022-08-14T03:20:33.563Z,88.342285
2022-08-14T03:21:43.269Z,88.342285
2022-08-14T03:22:52.945Z,88.238525
2022-08-14T03:24:00.628Z,88.439941
2022-08-14T03:25:11.391Z,88.745117
2022-08-14T03:26:30.073Z,88.439941
2022-08-14T03:27:35.240Z,88.342285
2022-08-14T03:28:42.356Z,88.342285
2022-08-14T03:29:50.038Z,88.647461
2022-08-14T03:31:00.091Z,88.647461
2022-08-14T03:32:08.403Z,88.848877
2022-08-14T03:33:18.053Z,89.257812
2022-08-14T03:34:47.662Z,89.154053
2022-08-14T03:35:40.110Z,88.848877
2022-08-14T03:37:29.569Z,88.647461
2022-08-14T03:39:10.987Z,88.647461
2022-08-14T03:39:16.362Z,88.543701
2022-08-14T03:40:21.267Z,88.543701
2022-08-14T03:41:33.105Z,88.543701
2022-08-14T03:42:39.567Z,88.586426
2022-08-14T03:43:57.943Z,88.38501
2022-08-14T03:45:20.548Z,88.38501
2022-08-14T03:46:10.106Z,88.690186
2022-08-14T03:47:20.345Z,88.482666
2022-08-14T03:48:38.115Z,88.787842
2022-08-14T03:49:42.461Z,88.787842
2022-08-14T03:50:50.387Z,88.690186
2022-08-14T03:52:01.400Z,88.891602
2022-08-14T03:53:09.795Z,89.196777
2022-08-14T03:54:20.508Z,89.398193
2022-08-14T03:55:30.319Z,89.807129
2022-08-14T03:56:38.778Z,89.703369
2022-08-14T03:57:46.441Z,89.093018
2022-08-14T03:58:57.102Z,88.891602
2022-08-14T04:00:05.823Z,89.196777
2022-08-14T04:01:15.575Z,88.995361
2022-08-14T04:02:32.137Z,88.726807
2022-08-14T04:03:32.911Z,89.031982
2022-08-14T04:04:42.548Z,88.830566
2022-08-14T04:05:53.240Z,88.934326
2022-08-14T04:07:01.950Z,88.726807
2022-08-14T04:08:23.304Z,89.031982
2022-08-14T04:09:22.324Z,89.337158
2022-08-14T04:10:33.006Z,90.05127
2022-08-14T04:11:41.141Z,89.849854
2022-08-14T04:12:51.520Z,90.155029
2022-08-14T04:14:00.472Z,89.239502
2022-08-14T04:15:09.178Z,89.135742
2022-08-14T04:16:17.859Z,89.440918
2022-08-14T04:17:27.568Z,89.910889
2022-08-14T04:18:38.262Z,89.501953
2022-08-14T04:19:47.911Z,89.807129
2022-08-14T04:20:56.662Z,88.28125
2022-08-14T04:22:06.389Z,88.17749
2022-08-14T04:23:18.454Z,88.482666
2022-08-14T04:24:27.673Z,89.398193
2022-08-14T04:25:37.308Z,88.38501
2022-08-14T04:26:47.021Z,88.079834
2022-08-14T04:28:02.019Z,88.079834
2022-08-14T04:29:14.502Z,88.28125
2022-08-14T04:30:24.143Z,88.38501
2022-08-14T04:32:57.000Z,88.28125
2022-08-14T04:32:59.376Z,88.38501
2022-08-14T04:33:50.091Z,88.17749
2022-08-14T04:34:57.752Z,87.976074
2022-08-14T04:36:09.258Z,87.93335
2022-08-14T04:37:22.265Z,88.134766
2022-08-14T04:38:36.187Z,88.439941
2022-08-14T04:39:41.884Z,87.835693
2022-08-14T04:40:48.164Z,87.426758
2022-08-14T04:41:58.830Z,87.225342
2022-08-14T04:43:06.507Z,86.920166
2022-08-14T04:44:26.922Z,86.773682
2022-08-14T04:45:29.591Z,86.773682
2022-08-14T04:46:55.483Z,86.676025
2022-08-14T04:47:47.207Z,86.676025
2022-08-14T04:48:59.749Z,86.676025
2022-08-14T04:50:06.689Z,86.773682
2022-08-14T04:51:16.476Z,86.676025
2022-08-14T04:52:24.659Z,86.981201
2022-08-14T04:53:35.165Z,86.773682
2022-08-14T04:54:44.445Z,86.773682
2022-08-14T04:55:53.134Z,86.981201
2022-08-14T04:57:01.790Z,86.834717
2022-08-14T04:58:21.344Z,87.139893
2022-08-14T04:59:20.187Z,87.548828
2022-08-14T05:00:29.824Z,88.05542
2022-08-14T05:01:39.779Z,88.360596
2022-08-14T05:02:47.230Z,87.854004
2022-08-14T05:03:56.879Z,87.139893
2022-08-14T05:05:05.519Z,86.938477
2022-08-14T05:06:34.693Z,86.737061
2022-08-14T05:07:33.901Z,86.328125
2022-08-14T05:08:50.363Z,86.022949
2022-08-14T05:09:47.753Z,85.681152
2022-08-14T05:10:55.820Z,85.577393
2022-08-14T05:13:11.346Z,85.577393
2022-08-14T05:13:16.189Z,85.681152
2022-08-14T05:14:43.167Z,85.272217
2022-08-14T05:15:39.357Z,85.778809
2022-08-14T05:16:46.639Z,85.577393
2022-08-14T05:17:57.059Z,85.375977
2022-08-14T05:19:17.431Z,84.7229
2022-08-14T05:20:33.327Z,84.625244
2022-08-14T05:21:58.691Z,84.216309
2022-08-14T05:22:38.697Z,84.216309
2022-08-14T05:23:47.357Z,83.709717
2022-08-14T05:24:58.066Z,83.612061
2022-08-14T05:26:06.778Z,84.014893
2022-08-14T05:27:16.429Z,83.911133
2022-08-14T05:28:26.114Z,83.911133
2022-08-14T05:29:34.781Z,84.075928
2022-08-14T05:30:44.557Z,83.770752
2022-08-14T05:31:55.996Z,83.874512
2022-08-14T05:33:01.930Z,83.673096
2022-08-14T05:34:12.602Z,83.569336
2022-08-14T05:35:23.297Z,83.630371
2022-08-14T05:36:34.070Z,83.227539
2022-08-14T05:37:46.194Z,83.532715
2022-08-14T05:38:54.343Z,83.227539
2022-08-14T05:40:04.060Z,83.123779
2022-08-14T05:41:13.657Z,82.580566
2022-08-14T05:42:27.222Z,82.171631
2022-08-14T05:43:41.034Z,81.872559
2022-08-14T05:44:42.699Z,81.628418
2022-08-14T05:45:51.361Z,81.628418
2022-08-14T05:47:00.065Z,81.225586
2022-08-14T05:48:09.747Z,81.427002
2022-08-14T05:49:20.413Z,81.121826
2022-08-14T05:50:30.083Z,81.182861
2022-08-14T05:51:39.775Z,80.780029
2022-08-14T05:52:49.652Z,80.474854
2022-08-14T05:54:00.385Z,80.175781
2022-08-14T05:55:07.855Z,80.133057
2022-08-14T05:56:16.518Z,79.931641
2022-08-14T05:57:25.197Z,79.492188
2022-08-14T05:58:40.868Z,79.589844
2022-08-14T05:59:45.586Z,79.79126
2022-08-14T06:00:54.281Z,79.388428
2022-08-14T06:02:05.802Z,78.747559
2022-08-14T06:03:12.617Z,78.747559
2022-08-14T06:04:22.322Z,78.948975
2022-08-14T06:05:33.018Z,78.240967
2022-08-14T06:06:41.652Z,78.405762
2022-08-14T06:07:52.308Z,78.100586
2022-08-14T06:09:02.008Z,77.661133
2022-08-14T06:10:11.657Z,77.258301
2022-08-14T06:11:23.979Z,77.22168
2022-08-14T06:12:56.207Z,77.11792
2022-08-14T06:13:44.822Z,77.319336
2022-08-14T06:14:53.312Z,76.617432
2022-08-14T06:16:01.998Z,76.275635
2022-08-14T06:17:15.818Z,76.074219
2022-08-14T06:18:22.427Z,76.678467
2022-08-14T06:19:31.110Z,76.983643
2022-08-14T06:20:40.794Z,76.477051
2022-08-14T06:21:54.481Z,75.939941
2022-08-14T06:23:00.170Z,75.836182
2022-08-14T06:24:10.495Z,75.335693
2022-08-14T06:25:19.489Z,75.299072
2022-08-14T06:26:30.548Z,75.195312
2022-08-14T06:27:36.854Z,75.097656
2022-08-14T06:28:46.571Z,74.658203
2022-08-14T06:29:57.239Z,74.353027
2022-08-14T06:31:05.877Z,74.456787
2022-08-14T06:32:37.199Z,73.919678
2022-08-14T06:33:30.306Z,73.919678
2022-08-14T06:35:05.193Z,72.973633
2022-08-14T06:35:46.741Z,72.674561
2022-08-14T06:36:56.292Z,72.540283
2022-08-14T06:38:05.970Z,72.235107
2022-08-14T06:39:17.129Z,72.235107
2022-08-14T06:40:28.557Z,72.338867
2022-08-14T06:41:52.757Z,71.801758
2022-08-14T06:42:48.910Z,71.899414
2022-08-14T06:43:57.492Z,72.772217
2022-08-14T06:45:07.359Z,71.466064
2022-08-14T06:46:17.480Z,70.526123
2022-08-14T06:47:24.715Z,69.390869
2022-08-14T06:48:34.410Z,68.988037
2022-08-14T06:49:49.663Z,69.256592
2022-08-14T06:50:52.722Z,69.854736
2022-08-14T06:52:03.469Z,68.621826
2022-08-14T06:53:12.138Z,68.31665
2022-08-14T06:54:22.819Z,68.890381
2022-08-14T06:55:33.464Z,67.852783
2022-08-14T06:56:44.137Z,67.449951
2022-08-14T06:57:51.920Z,67.419434
2022-08-14T06:59:00.590Z,66.619873
2022-08-14T07:00:10.292Z,66.28418
2022-08-14T07:01:27.202Z,65.588379
2022-08-14T07:02:31.580Z,65.155029
2022-08-14T07:03:42.241Z,65.924072
2022-08-14T07:04:51.931Z,65.020752
2022-08-14T07:06:00.583Z,64.294434
2022-08-14T07:07:11.237Z,63.494873
2022-08-14T07:08:20.959Z,63.464355
2022-08-14T07:09:40.818Z,62.963867
2022-08-14T07:10:40.299Z,62.133789
2022-08-14T07:11:50.050Z,61.804199
2022-08-14T07:13:02.332Z,61.303711
2022-08-14T07:14:08.366Z,60.876465
2022-08-14T07:15:19.070Z,60.778809
2022-08-14T07:16:27.814Z,60.650635
2022-08-14T07:17:36.612Z,61.94458
2022-08-14T07:18:50.823Z,61.413574
2022-08-14T07:19:56.867Z,59.790039
2022-08-14T07:21:05.575Z,59.594727
2022-08-14T07:22:17.476Z,60.26001
2022-08-14T07:23:24.154Z,58.764648
2022-08-14T07:24:34.641Z,59.338379
2022-08-14T07:25:43.656Z,59.436035
2022-08-14T07:26:50.986Z,58.514404
2022-08-14T07:28:00.651Z,57.189941
2022-08-14T07:29:10.310Z,57.061768
2022-08-14T07:30:33.582Z,56.365967
2022-08-14T07:31:31.696Z,56.640625
2022-08-14T07:32:40.401Z,56.018066
2022-08-14T07:33:51.133Z,54.821777
2022-08-14T07:34:58.693Z,55.12085
2022-08-14T07:36:24.409Z,54.998779
2022-08-14T07:37:19.011Z,54.400635
2022-08-14T07:38:30.897Z,54.400635
2022-08-14T07:39:38.529Z,54.077148
2022-08-14T07:40:47.991Z,55.072021
2022-08-14T07:41:57.619Z,53.955078
2022-08-14T07:43:14.553Z,53.631592
2022-08-14T07:44:29.880Z,53.106689
2022-08-14T07:45:27.680Z,51.721191
2022-08-14T07:46:37.370Z,51.989746
2022-08-14T07:47:46.022Z,52.191162
2022-08-14T07:48:55.670Z,50.708008
2022-08-14T07:50:04.392Z,50.90332
2022-08-14T07:51:14.060Z,51.000977
2022-08-14T07:52:30.393Z,50.628662
2022-08-14T07:53:36.553Z,51.202393
2022-08-14T07:54:45.004Z,50.708008
2022-08-14T07:56:00.616Z,50.408936
2022-08-14T07:57:06.517Z,51.074219
2022-08-14T07:58:30.553Z,50.384521
2022-08-14T07:59:26.133Z,50.286865
2022-08-14T08:00:36.256Z,49.865723
2022-08-14T08:01:48.536Z,49.841309
2022-08-14T08:02:57.131Z,48.950195
2022-08-14T08:04:09.171Z,48.950195
2022-08-14T08:05:16.952Z,47.86377
2022-08-14T08:06:25.635Z,48.754883
2022-08-14T08:07:35.324Z,48.553467
2022-08-14T08:08:44.981Z,48.33374
2022-08-14T08:09:55.656Z,48.138428
2022-08-14T08:11:08.331Z,50.286865
2022-08-14T08:12:16.982Z,48.236084
2022-08-14T08:13:25.667Z,49.32251
2022-08-14T08:14:55.328Z,48.236084
2022-08-14T08:15:45.966Z,47.564697
2022-08-14T08:16:54.659Z,48.577881
2022-08-14T08:18:03.987Z,49.664307
2022-08-14T08:19:14.462Z,48.974609
2022-08-14T08:20:23.684Z,49.047852
2022-08-14T08:21:35.529Z,49.127197
2022-08-14T08:22:48.204Z,47.540283
2022-08-14T08:23:55.712Z,46.850586
2022-08-14T08:25:07.423Z,47.442627
2022-08-14T08:26:15.100Z,47.961426
2022-08-14T08:27:23.869Z,48.034668
2022-08-14T08:28:34.255Z,47.644043
2022-08-14T08:29:50.562Z,48.406982
2022-08-14T08:31:00.724Z,47.10083
2022-08-14T08:32:10.693Z,46.606445
2022-08-14T08:33:22.676Z,47.497559
2022-08-14T08:34:31.598Z,47.180176
2022-08-14T08:35:46.683Z,46.97876
2022-08-14T08:36:52.574Z,46.191406
2022-08-14T08:38:02.999Z,46.759033
2022-08-14T08:39:16.166Z,45.874023
2022-08-14T08:40:22.998Z,47.44873
2022-08-14T08:41:33.573Z,46.661377
2022-08-14T08:42:44.767Z,45.874023
2022-08-14T08:43:54.022Z,46.264648
2022-08-14T08:45:03.655Z,46.264648
2022-08-14T08:46:18.514Z,46.166992
2022-08-14T08:47:22.930Z,46.264648
2022-08-14T08:48:36.402Z,45.947266
2022-08-14T08:49:48.568Z,45.654297
2022-08-14T08:50:54.098Z,45.727539
2022-08-14T08:52:03.764Z,45.239258
2022-08-14T08:53:13.421Z,44.720459
2022-08-14T08:54:26.501Z,44.842529
2022-08-14T08:55:33.938Z,45.117188
2022-08-14T08:56:43.460Z,45.806885
2022-08-14T08:57:53.152Z,44.921875
2022-08-14T08:59:02.824Z,45.3125
2022-08-14T09:00:24.691Z,45.410156
2022-08-14T09:01:24.230Z,44.799805
2022-08-14T09:02:32.858Z,44.403076
2022-08-14T09:03:44.088Z,44.995117
2022-08-14T09:04:53.407Z,44.775391
2022-08-14T09:06:00.967Z,44.775391
2022-08-14T09:07:11.644Z,44.482422
2022-08-14T09:08:31.099Z,44.189453
2022-08-14T09:09:33.046Z,44.165039
2022-08-14T09:10:40.553Z,44.146729
2022-08-14T09:11:49.217Z,43.652344
2022-08-14T09:12:58.875Z,44.244385
2022-08-14T09:14:07.534Z,43.652344
2022-08-14T09:15:17.228Z,43.457031
2022-08-14T09:16:27.943Z,43.359375
2022-08-14T09:17:37.637Z,43.334961
2022-08-14T09:18:47.279Z,43.652344
2022-08-14T09:19:56.931Z,44.049072
2022-08-14T09:21:07.568Z,43.060303
2022-08-14T09:22:33.207Z,43.377686
2022-08-14T09:23:34.702Z,43.676758
2022-08-14T09:24:43.887Z,44.458008
2022-08-14T09:26:00.586Z,43.261719
2022-08-14T09:26:58.787Z,42.962646
2022-08-14T09:28:07.444Z,43.359375
2022-08-14T09:29:15.137Z,43.261719
2022-08-14T09:30:31.804Z,42.651367
2022-08-14T09:31:42.737Z,42.279053
2022-08-14T09:32:58.430Z,43.359375
2022-08-14T09:33:57.959Z,42.987061
2022-08-14T09:35:08.440Z,44.165039
2022-08-14T09:36:18.430Z,42.889404
2022-08-14T09:37:27.174Z,42.810059
2022-08-14T09:38:36.864Z,43.560791
2022-08-14T09:39:44.523Z,44.9646
2022-08-14T09:40:55.191Z,44.665527
2022-08-14T09:42:17.914Z,44.445801
2022-08-14T09:43:14.575Z,44.921875
2022-08-14T09:44:25.405Z,44.604492
2022-08-14T09:45:39.900Z,43.988037
2022-08-14T09:46:49.811Z,45.147705
2022-08-14T09:47:56.065Z,43.969727
2022-08-14T09:49:04.785Z,43.005371
2022-08-14T09:50:15.638Z,43.695068
2022-08-14T09:51:25.678Z,42.987061
2022-08-14T09:52:34.951Z,43.640137
2022-08-14T09:54:13.186Z,45.281982
2022-08-14T09:54:56.337Z,45.037842
2022-08-14T09:56:06.134Z,46.179199
2022-08-14T09:57:16.851Z,43.988037
2022-08-14T09:58:25.514Z,42.340088
2022-08-14T09:59:36.275Z,43.145752
2022-08-14T10:00:43.853Z,44.604492
2022-08-14T10:01:53.524Z,44.110107
2022-08-14T10:03:02.286Z,43.475342
2022-08-14T10:04:12.433Z,43.359375
2022-08-14T10:05:22.635Z,42.156982
2022-08-14T10:06:30.302Z,42.84668
2022-08-14T10:07:41.154Z,43.023682
2022-08-14T10:08:50.803Z,43.414307
2022-08-14T10:09:59.525Z,41.821289
2022-08-14T10:11:09.132Z,42.29126
2022-08-14T10:12:28.951Z,41.308594
2022-08-14T10:13:30.499Z,41.094971
2022-08-14T10:14:40.151Z,40.307617
2022-08-14T10:15:50.894Z,41.485596
2022-08-14T10:17:00.566Z,40.405273
2022-08-14T10:18:13.240Z,41.680908
2022-08-14T10:19:20.909Z,39.72168
2022-08-14T10:20:40.033Z,40.209961
2022-08-14T10:21:58.909Z,40.252686
2022-08-14T10:23:22.403Z,40.155029
2022-08-14T10:24:02.667Z,40.350342
2022-08-14T10:25:13.310Z,39.465332
2022-08-14T10:26:27.996Z,40.429688
2022-08-14T10:27:33.693Z,40.429688
2022-08-14T10:29:04.025Z,39.447021
2022-08-14T10:29:53.069Z,37.780762
2022-08-14T10:31:02.864Z,37.701416
2022-08-14T10:32:17.523Z,38.580322
2022-08-14T10:33:23.312Z,37.188721
2022-08-14T10:34:35.491Z,38.269043
2022-08-14T10:35:43.249Z,38.287354
2022-08-14T10:37:02.266Z,39.208984
2022-08-14T10:38:07.322Z,40.509033
2022-08-14T10:39:13.724Z,40.209961
2022-08-14T10:40:37.221Z,40.112305
2022-08-14T10:41:33.102Z,39.855957
2022-08-14T10:42:44.080Z,40.960693
2022-08-14T10:43:52.499Z,40.863037
2022-08-14T10:45:02.189Z,40.545654
2022-08-14T10:46:22.204Z,41.552734
2022-08-14T10:47:37.540Z,40.863037
2022-08-14T10:48:36.717Z,41.015625
2022-08-14T10:49:43.832Z,40.820312
2022-08-14T10:50:53.649Z,40.509033
2022-08-14T10:52:03.344Z,40.112305
2022-08-14T10:53:12.028Z,40.997314
2022-08-14T10:54:36.391Z,39.624023
2022-08-14T10:55:32.310Z,40.606689
2022-08-14T10:56:43.083Z,40.881348
2022-08-14T10:57:51.743Z,40.350342
2022-08-14T10:59:00.478Z,42.175293
2022-08-14T11:00:09.163Z,38.543701
2022-08-14T11:01:18.919Z,38.232422
2022-08-14T11:02:36.025Z,38.116455
2022-08-14T11:03:55.624Z,38.311768
2022-08-14T11:04:49.057Z,37.902832
2022-08-14T11:05:58.679Z,37.213135
2022-08-14T11:07:07.391Z,36.84082
2022-08-14T11:08:17.087Z,36.84082
2022-08-14T11:09:31.280Z,37.036133
2022-08-14T11:10:37.475Z,38.098145
2022-08-14T11:11:47.209Z,37.097168
2022-08-14T11:12:57.889Z,36.999512
2022-08-14T11:14:09.248Z,37.750244
2022-08-14T11:15:16.253Z,36.572266
2022-08-14T11:16:26.918Z,35.675049
2022-08-14T11:17:36.652Z,36.16333
2022-08-14T11:18:50.683Z,36.260986
2022-08-14T11:19:58.012Z,36.260986
2022-08-14T11:21:06.756Z,35.888672
2022-08-14T11:22:52.210Z,37.469482
2022-08-14T11:23:27.007Z,37.213135
2022-08-14T11:24:51.092Z,37.786865
2022-08-14T11:25:53.105Z,37.060547
2022-08-14T11:26:58.137Z,37.255859
2022-08-14T11:28:10.818Z,35.986328
2022-08-14T11:29:19.473Z,36.297607
2022-08-14T11:30:49.709Z,36.981201
2022-08-14T11:31:39.832Z,36.279297
2022-08-14T11:32:49.600Z,37.139893
2022-08-14T11:33:59.419Z,35.461426
2022-08-14T11:35:08.919Z,35.461426
2022-08-14T11:36:18.087Z,36.230469
2022-08-14T11:37:36.514Z,36.230469
2022-08-14T11:38:38.127Z,34.863281
2022-08-14T11:39:47.793Z,34.960938
2022-08-14T11:40:57.405Z,35.253906
2022-08-14T11:42:55.836Z,35.430908
2022-08-14T11:43:15.864Z,35.040283
2022-08-14T11:44:45.027Z,34.649658
2022-08-14T11:45:37.386Z,33.575439
2022-08-14T11:46:46.859Z,34.454346
2022-08-14T11:48:10.589Z,34.063721
2022-08-14T11:49:06.847Z,34.552002
2022-08-14T11:50:25.204Z,34.942627
2022-08-14T11:51:30.509Z,34.082031
2022-08-14T11:52:36.379Z,36.035156
2022-08-14T11:53:46.162Z,34.960938
2022-08-14T11:54:54.896Z,34.014893
2022-08-14T11:56:06.143Z,35.614014
2022-08-14T11:57:15.222Z,35.107422
2022-08-14T11:58:24.851Z,34.991455
2022-08-14T11:59:35.532Z,34.698486
2022-08-14T12:00:46.077Z,34.875488
2022-08-14T12:01:53.948Z,34.472656
2022-08-14T12:03:04.154Z,34.991455
2022-08-14T12:04:21.915Z,34.777832
2022-08-14T12:05:23.105Z,33.691406
2022-08-14T12:06:38.649Z,34.082031
2022-08-14T12:07:42.999Z,34.161377
2022-08-14T12:08:53.088Z,32.971191
2022-08-14T12:10:25.817Z,33.557129
2022-08-14T12:11:11.382Z,32.958984
2022-08-14T12:12:34.849Z,33.441162
2022-08-14T12:13:30.903Z,33.654785
2022-08-14T12:14:42.712Z,33.154297
2022-08-14T12:15:51.362Z,33.03833
2022-08-14T12:17:00.778Z,32.940674
2022-08-14T12:18:11.295Z,32.452393
2022-08-14T12:19:21.271Z,32.061768
2022-08-14T12:20:32.473Z,32.342529
2022-08-14T12:21:42.535Z,32.531738
2022-08-14T12:22:52.462Z,32.403564
2022-08-14T12:24:01.838Z,32.58667
2022-08-14T12:25:11.189Z,30.621338
2022-08-14T12:26:31.743Z,31.304932
2022-08-14T12:27:30.085Z,30.706787
2022-08-14T12:28:59.567Z,30.34668
2022-08-14T12:29:50.599Z,31.896973
2022-08-14T12:31:00.309Z,31.622314
2022-08-14T12:32:12.690Z,34.338379
2022-08-14T12:33:18.708Z,31.982422
2022-08-14T12:34:28.429Z,31.671143
2022-08-14T12:35:39.661Z,32.531738
2022-08-14T12:36:47.976Z,31.347656
2022-08-14T12:37:57.717Z,30.169678
2022-08-14T12:39:05.567Z,30.456543
2022-08-14T12:40:19.545Z,30.639648
2022-08-14T12:41:27.986Z,29.180908
2022-08-14T12:42:37.963Z,30.426025
2022-08-14T12:43:47.268Z,30.316162
2022-08-14T12:44:55.945Z,29.91333
2022-08-14T12:46:06.624Z,29.620361
2022-08-14T12:47:17.370Z,28.125
2022-08-14T12:48:31.984Z,29.443359
2022-08-14T12:49:37.802Z,30.224609
2022-08-14T12:50:49.781Z,29.736328
2022-08-14T12:51:57.153Z,30.310059
2022-08-14T12:53:14.137Z,30.126953
2022-08-14T12:54:18.594Z,30.212402
2022-08-14T12:55:32.438Z,30.603027
2022-08-14T12:56:37.824Z,32.647705
2022-08-14T12:57:46.712Z,31.060791
2022-08-14T12:58:57.207Z,30.169678
2022-08-14T13:00:22.269Z,30.444336
2022-08-14T13:01:20.428Z,29.858398
2022-08-14T13:02:27.390Z,28.875732
2022-08-14T13:03:35.936Z,28.790283
2022-08-14T13:04:45.748Z,28.985596
2022-08-14T13:05:53.433Z,29.846191
2022-08-14T13:07:02.085Z,29.650879
2022-08-14T13:08:33.108Z,30.9021
2022-08-14T13:09:23.453Z,28.942871
2022-08-14T13:10:48.056Z,29.040527
2022-08-14T13:11:45.118Z,28.747559
2022-08-14T13:13:12.874Z,28.582764
2022-08-14T13:14:06.089Z,30.236816
2022-08-14T13:15:16.789Z,29.748535
2022-08-14T13:16:33.863Z,29.541016
2022-08-14T13:17:38.165Z,29.193115
2022-08-14T13:18:46.949Z,30.224609